sensor_id;sensor_type;location;lat;lon;timestamp;temperature;humidity
18779;DHT22;9518;51.720;14.384;2023-09-12T00:01:08;14.60;99.90
18779;DHT22;9518;51.720;14.384;2023-09-12T00:03:35;14.60;99.90
18779;DHT22;9518;51.720;14.384;2023-09-12T00:06:03;14.50;99.90
18779;DHT22;9518;51.720;14.384;2023-09-12T00:08:32;14.50;99.90
18779;DHT22;9518;51.720;14.384;2023-09-12T00:11:04;14.50;99.90
18779;DHT22;9518;51.720;14.384;2023-09-12T00:13:38;14.50;99.90
18779;DHT22;9518;51.720;14.384;2023-09-12T00:16:07;14.50;99.90
18779;DHT22;9518;51.720;14.384;2023-09-12T00:18:38;14.50;99.90
18779;DHT22;9518;51.720;14.384;2023-09-12T00:21:05;14.50;99.90
18779;DHT22;9518;51.720;14.384;2023-09-12T00:23:34;14.40;99.90
18779;DHT22;9518;51.720;14.384;2023-09-12T00:26:01;14.40;99.90
18779;DHT22;9518;51.720;14.384;2023-09-12T00:28:29;14.40;99.90
18779;DHT22;9518;51.720;14.384;2023-09-12T00:30:58;14.30;99.90
18779;DHT22;9518;51.720;14.384;2023-09-12T00:33:25;14.30;99.90
18779;DHT22;9518;51.720;14.384;2023-09-12T00:35:52;14.30;99.90
18779;DHT22;9518;51.720;14.384;2023-09-12T00:38:19;14.30;99.90
18779;DHT22;9518;51.720;14.384;2023-09-12T00:40:48;14.30;99.90
18779;DHT22;9518;51.720;14.384;2023-09-12T00:43:15;14.20;99.90
18779;DHT22;9518;51.720;14.384;2023-09-12T00:45:42;14.20;99.90
18779;DHT22;9518;51.720;14.384;2023-09-12T00:48:10;14.30;99.90
18779;DHT22;9518;51.720;14.384;2023-09-12T00:50:41;14.20;99.90
18779;DHT22;9518;51.720;14.384;2023-09-12T00:53:10;14.20;99.90
18779;DHT22;9518;51.720;14.384;2023-09-12T00:55:40;14.20;99.90
18779;DHT22;9518;51.720;14.384;2023-09-12T00:58:11;14.10;99.90
18779;DHT22;9518;51.720;14.384;2023-09-12T01:00:40;14.10;99.90
18779;DHT22;9518;51.720;14.384;2023-09-12T01:03:08;14.10;99.90
18779;DHT22;9518;51.720;14.384;2023-09-12T01:05:36;14.10;99.90
18779;DHT22;9518;51.720;14.384;2023-09-12T01:08:03;14.00;99.90
18779;DHT22;9518;51.720;14.384;2023-09-12T01:10:30;13.90;99.90
18779;DHT22;9518;51.720;14.384;2023-09-12T01:12:58;14.00;99.90
18779;DHT22;9518;51.720;14.384;2023-09-12T01:15:27;14.00;99.90
18779;DHT22;9518;51.720;14.384;2023-09-12T01:17:54;13.90;99.90
18779;DHT22;9518;51.720;14.384;2023-09-12T01:20:25;13.90;99.90
18779;DHT22;9518;51.720;14.384;2023-09-12T01:23:15;13.90;99.90
18779;DHT22;9518;51.720;14.384;2023-09-12T01:26:17;13.90;99.90
18779;DHT22;9518;51.720;14.384;2023-09-12T01:28:49;13.90;99.90
18779;DHT22;9518;51.720;14.384;2023-09-12T01:31:18;13.80;99.90
18779;DHT22;9518;51.720;14.384;2023-09-12T01:33:46;13.90;99.90
18779;DHT22;9518;51.720;14.384;2023-09-12T01:36:13;13.90;99.90
18779;DHT22;9518;51.720;14.384;2023-09-12T01:38:41;13.80;99.90
18779;DHT22;9518;51.720;14.384;2023-09-12T01:41:08;13.80;99.90
18779;DHT22;9518;51.720;14.384;2023-09-12T01:43:36;13.80;99.90
18779;DHT22;9518;51.720;14.384;2023-09-12T01:46:06;13.80;99.90
18779;DHT22;9518;51.720;14.384;2023-09-12T01:48:35;13.70;99.90
18779;DHT22;9518;51.720;14.384;2023-09-12T01:51:04;13.70;99.90
18779;DHT22;9518;51.720;14.384;2023-09-12T01:53:33;13.70;99.90
18779;DHT22;9518;51.720;14.384;2023-09-12T01:56:01;13.70;99.90
18779;DHT22;9518;51.720;14.384;2023-09-12T01:58:31;13.70;99.90
18779;DHT22;9518;51.720;14.384;2023-09-12T02:00:59;13.70;99.90
18779;DHT22;9518;51.720;14.384;2023-09-12T02:03:27;13.70;99.90
18779;DHT22;9518;51.720;14.384;2023-09-12T02:05:54;13.60;99.90
18779;DHT22;9518;51.720;14.384;2023-09-12T02:08:25;13.60;99.90
18779;DHT22;9518;51.720;14.384;2023-09-12T02:10:53;13.50;99.90
18779;DHT22;9518;51.720;14.384;2023-09-12T02:13:20;13.50;99.90
18779;DHT22;9518;51.720;14.384;2023-09-12T02:15:47;13.50;99.90
18779;DHT22;9518;51.720;14.384;2023-09-12T02:18:14;13.50;99.90
18779;DHT22;9518;51.720;14.384;2023-09-12T02:20:43;13.40;99.90
18779;DHT22;9518;51.720;14.384;2023-09-12T02:23:12;13.40;99.90
18779;DHT22;9518;51.720;14.384;2023-09-12T02:25:38;13.40;99.90
18779;DHT22;9518;51.720;14.384;2023-09-12T02:28:06;13.40;99.90
18779;DHT22;9518;51.720;14.384;2023-09-12T02:30:33;13.40;99.90
18779;DHT22;9518;51.720;14.384;2023-09-12T02:33:00;13.50;99.90
18779;DHT22;9518;51.720;14.384;2023-09-12T02:35:27;13.50;99.90
18779;DHT22;9518;51.720;14.384;2023-09-12T02:37:56;13.50;99.90
18779;DHT22;9518;51.720;14.384;2023-09-12T02:40:24;13.50;99.90
18779;DHT22;9518;51.720;14.384;2023-09-12T02:42:51;13.50;99.90
18779;DHT22;9518;51.720;14.384;2023-09-12T02:45:19;13.40;99.90
18779;DHT22;9518;51.720;14.384;2023-09-12T02:47:46;13.40;99.90
18779;DHT22;9518;51.720;14.384;2023-09-12T02:50:13;13.40;99.90
18779;DHT22;9518;51.720;14.384;2023-09-12T02:52:40;13.40;99.90
18779;DHT22;9518;51.720;14.384;2023-09-12T02:55:09;13.30;99.90
18779;DHT22;9518;51.720;14.384;2023-09-12T02:57:36;13.20;99.90
18779;DHT22;9518;51.720;14.384;2023-09-12T03:00:04;13.20;99.90
18779;DHT22;9518;51.720;14.384;2023-09-12T03:02:34;13.20;99.90
18779;DHT22;9518;51.720;14.384;2023-09-12T03:05:01;13.20;99.90
18779;DHT22;9518;51.720;14.384;2023-09-12T03:07:29;13.30;99.90
18779;DHT22;9518;51.720;14.384;2023-09-12T03:09:59;13.40;99.90
18779;DHT22;9518;51.720;14.384;2023-09-12T03:12:28;13.40;99.90
18779;DHT22;9518;51.720;14.384;2023-09-12T03:14:56;13.40;99.90
18779;DHT22;9518;51.720;14.384;2023-09-12T03:17:23;13.40;99.90
18779;DHT22;9518;51.720;14.384;2023-09-12T03:19:53;13.30;99.90
18779;DHT22;9518;51.720;14.384;2023-09-12T03:22:20;13.30;99.90
18779;DHT22;9518;51.720;14.384;2023-09-12T03:24:48;13.20;99.90
18779;DHT22;9518;51.720;14.384;2023-09-12T03:27:15;13.20;99.90
18779;DHT22;9518;51.720;14.384;2023-09-12T03:29:48;13.20;99.90
18779;DHT22;9518;51.720;14.384;2023-09-12T03:32:16;13.20;99.90
18779;DHT22;9518;51.720;14.384;2023-09-12T03:34:43;13.20;99.90
18779;DHT22;9518;51.720;14.384;2023-09-12T03:37:12;13.20;99.90
18779;DHT22;9518;51.720;14.384;2023-09-12T03:39:40;13.30;99.90
18779;DHT22;9518;51.720;14.384;2023-09-12T03:42:11;13.30;99.90
18779;DHT22;9518;51.720;14.384;2023-09-12T03:44:38;13.30;99.90
18779;DHT22;9518;51.720;14.384;2023-09-12T03:47:07;13.30;99.90
18779;DHT22;9518;51.720;14.384;2023-09-12T03:49:35;13.20;99.90
18779;DHT22;9518;51.720;14.384;2023-09-12T03:52:02;13.20;99.90
18779;DHT22;9518;51.720;14.384;2023-09-12T03:54:29;13.20;99.90
18779;DHT22;9518;51.720;14.384;2023-09-12T03:56:56;13.20;99.90
18779;DHT22;9518;51.720;14.384;2023-09-12T03:59:24;13.10;99.90
18779;DHT22;9518;51.720;14.384;2023-09-12T04:01:51;13.10;99.90
18779;DHT22;9518;51.720;14.384;2023-09-12T04:04:19;13.10;99.90
18779;DHT22;9518;51.720;14.384;2023-09-12T04:06:49;13.00;99.90
18779;DHT22;9518;51.720;14.384;2023-09-12T04:09:19;13.00;99.90
18779;DHT22;9518;51.720;14.384;2023-09-12T04:11:46;13.10;99.90
18779;DHT22;9518;51.720;14.384;2023-09-12T04:14:14;13.10;99.90
18779;DHT22;9518;51.720;14.384;2023-09-12T04:16:41;13.20;99.90
18779;DHT22;9518;51.720;14.384;2023-09-12T04:19:09;13.20;99.90
18779;DHT22;9518;51.720;14.384;2023-09-12T04:21:37;13.20;99.90
18779;DHT22;9518;51.720;14.384;2023-09-12T04:24:07;13.20;99.90
18779;DHT22;9518;51.720;14.384;2023-09-12T04:26:36;13.20;99.90
18779;DHT22;9518;51.720;14.384;2023-09-12T04:29:04;13.20;99.90
18779;DHT22;9518;51.720;14.384;2023-09-12T04:31:31;13.10;99.90
18779;DHT22;9518;51.720;14.384;2023-09-12T04:33:58;13.10;99.90
18779;DHT22;9518;51.720;14.384;2023-09-12T04:36:27;13.10;99.90
18779;DHT22;9518;51.720;14.384;2023-09-12T04:38:56;13.10;99.90
18779;DHT22;9518;51.720;14.384;2023-09-12T04:41:23;13.10;99.90
18779;DHT22;9518;51.720;14.384;2023-09-12T04:43:50;13.10;99.90
18779;DHT22;9518;51.720;14.384;2023-09-12T04:46:18;13.10;99.90
18779;DHT22;9518;51.720;14.384;2023-09-12T04:48:45;13.20;99.90
18779;DHT22;9518;51.720;14.384;2023-09-12T04:51:12;13.20;99.90
18779;DHT22;9518;51.720;14.384;2023-09-12T04:53:43;13.20;99.90
18779;DHT22;9518;51.720;14.384;2023-09-12T04:56:12;13.30;99.90
18779;DHT22;9518;51.720;14.384;2023-09-12T04:58:39;13.40;99.90
18779;DHT22;9518;51.720;14.384;2023-09-12T05:01:06;13.50;99.90
18779;DHT22;9518;51.720;14.384;2023-09-12T05:03:34;13.60;99.90
18779;DHT22;9518;51.720;14.384;2023-09-12T05:06:02;13.60;99.90
18779;DHT22;9518;51.720;14.384;2023-09-12T05:08:30;13.70;99.90
18779;DHT22;9518;51.720;14.384;2023-09-12T05:10:57;13.80;99.90
18779;DHT22;9518;51.720;14.384;2023-09-12T05:13:25;13.90;99.90
18779;DHT22;9518;51.720;14.384;2023-09-12T05:15:53;14.00;99.90
18779;DHT22;9518;51.720;14.384;2023-09-12T05:18:22;14.10;99.90
18779;DHT22;9518;51.720;14.384;2023-09-12T05:20:50;14.20;99.90
18779;DHT22;9518;51.720;14.384;2023-09-12T05:23:17;14.30;99.90
18779;DHT22;9518;51.720;14.384;2023-09-12T05:25:44;14.40;99.90
18779;DHT22;9518;51.720;14.384;2023-09-12T05:28:11;14.40;99.90
18779;DHT22;9518;51.720;14.384;2023-09-12T05:30:43;14.50;99.90
18779;DHT22;9518;51.720;14.384;2023-09-12T05:33:10;14.50;99.90
18779;DHT22;9518;51.720;14.384;2023-09-12T05:35:37;14.60;99.90
18779;DHT22;9518;51.720;14.384;2023-09-12T05:38:06;14.60;99.90
18779;DHT22;9518;51.720;14.384;2023-09-12T05:40:36;14.70;99.90
18779;DHT22;9518;51.720;14.384;2023-09-12T05:43:05;14.80;99.90
18779;DHT22;9518;51.720;14.384;2023-09-12T05:45:33;14.90;99.90
18779;DHT22;9518;51.720;14.384;2023-09-12T05:48:02;15.00;99.90
18779;DHT22;9518;51.720;14.384;2023-09-12T05:50:30;15.00;99.90
18779;DHT22;9518;51.720;14.384;2023-09-12T05:52:57;15.20;99.90
18779;DHT22;9518;51.720;14.384;2023-09-12T05:55:24;15.20;99.90
18779;DHT22;9518;51.720;14.384;2023-09-12T05:57:52;15.30;99.90
18779;DHT22;9518;51.720;14.384;2023-09-12T06:00:21;15.40;99.90
18779;DHT22;9518;51.720;14.384;2023-09-12T06:02:48;15.60;99.90
18779;DHT22;9518;51.720;14.384;2023-09-12T06:05:17;15.70;99.90
18779;DHT22;9518;51.720;14.384;2023-09-12T06:07:45;15.80;99.90
18779;DHT22;9518;51.720;14.384;2023-09-12T06:10:12;15.90;99.90
18779;DHT22;9518;51.720;14.384;2023-09-12T06:12:40;16.00;99.90
18779;DHT22;9518;51.720;14.384;2023-09-12T06:15:09;16.10;99.90
18779;DHT22;9518;51.720;14.384;2023-09-12T06:17:36;16.20;99.90
18779;DHT22;9518;51.720;14.384;2023-09-12T06:20:04;16.30;99.90
18779;DHT22;9518;51.720;14.384;2023-09-12T06:22:34;16.40;99.90
18779;DHT22;9518;51.720;14.384;2023-09-12T06:25:03;16.60;99.90
18779;DHT22;9518;51.720;14.384;2023-09-12T06:27:30;16.80;99.90
18779;DHT22;9518;51.720;14.384;2023-09-12T06:29:57;17.00;99.90
18779;DHT22;9518;51.720;14.384;2023-09-12T06:32:25;17.10;99.90
18779;DHT22;9518;51.720;14.384;2023-09-12T06:34:52;17.30;99.90
18779;DHT22;9518;51.720;14.384;2023-09-12T06:37:21;17.50;99.90
18779;DHT22;9518;51.720;14.384;2023-09-12T06:39:51;17.70;99.90
18779;DHT22;9518;51.720;14.384;2023-09-12T06:42:18;17.90;99.90
18779;DHT22;9518;51.720;14.384;2023-09-12T06:44:47;18.00;99.90
18779;DHT22;9518;51.720;14.384;2023-09-12T06:47:14;18.10;99.90
18779;DHT22;9518;51.720;14.384;2023-09-12T06:49:41;18.30;99.90
18779;DHT22;9518;51.720;14.384;2023-09-12T06:52:08;18.50;99.90
18779;DHT22;9518;51.720;14.384;2023-09-12T06:54:39;18.70;99.90
18779;DHT22;9518;51.720;14.384;2023-09-12T06:57:07;18.90;99.90
18779;DHT22;9518;51.720;14.384;2023-09-12T06:59:34;19.20;99.90
18779;DHT22;9518;51.720;14.384;2023-09-12T07:02:02;19.40;99.90
18779;DHT22;9518;51.720;14.384;2023-09-12T07:04:30;19.60;99.90
18779;DHT22;9518;51.720;14.384;2023-09-12T07:06:57;19.80;99.90
18779;DHT22;9518;51.720;14.384;2023-09-12T07:09:24;20.00;99.90
18779;DHT22;9518;51.720;14.384;2023-09-12T07:11:53;20.30;99.90
18779;DHT22;9518;51.720;14.384;2023-09-12T07:14:22;20.40;99.90
18779;DHT22;9518;51.720;14.384;2023-09-12T07:16:51;20.60;99.90
18779;DHT22;9518;51.720;14.384;2023-09-12T07:19:18;20.70;99.90
18779;DHT22;9518;51.720;14.384;2023-09-12T07:21:45;20.70;99.90
18779;DHT22;9518;51.720;14.384;2023-09-12T07:24:15;20.80;99.90
18779;DHT22;9518;51.720;14.384;2023-09-12T07:26:42;21.00;99.90
18779;DHT22;9518;51.720;14.384;2023-09-12T07:29:09;21.20;99.90
18779;DHT22;9518;51.720;14.384;2023-09-12T07:31:38;21.40;99.90
18779;DHT22;9518;51.720;14.384;2023-09-12T07:34:05;21.60;99.90
18779;DHT22;9518;51.720;14.384;2023-09-12T07:36:33;21.70;99.90
18779;DHT22;9518;51.720;14.384;2023-09-12T07:39:02;21.90;99.90
18779;DHT22;9518;51.720;14.384;2023-09-12T07:41:30;22.00;99.90
18779;DHT22;9518;51.720;14.384;2023-09-12T07:43:57;22.10;98.80
18779;DHT22;9518;51.720;14.384;2023-09-12T07:46:26;22.30;99.90
18779;DHT22;9518;51.720;14.384;2023-09-12T07:48:56;22.40;98.10
18779;DHT22;9518;51.720;14.384;2023-09-12T07:51:24;22.50;97.90
18779;DHT22;9518;51.720;14.384;2023-09-12T07:53:54;22.60;98.80
18779;DHT22;9518;51.720;14.384;2023-09-12T07:56:22;22.70;95.80
18779;DHT22;9518;51.720;14.384;2023-09-12T07:58:51;22.80;94.60
18779;DHT22;9518;51.720;14.384;2023-09-12T08:01:21;23.10;94.90
18779;DHT22;9518;51.720;14.384;2023-09-12T08:03:49;23.20;94.30
18779;DHT22;9518;51.720;14.384;2023-09-12T08:06:18;23.20;93.20
18779;DHT22;9518;51.720;14.384;2023-09-12T08:08:47;23.50;93.60
18779;DHT22;9518;51.720;14.384;2023-09-12T08:11:15;23.70;91.80
18779;DHT22;9518;51.720;14.384;2023-09-12T08:13:42;23.90;91.20
18779;DHT22;9518;51.720;14.384;2023-09-12T08:16:10;24.10;92.00
18779;DHT22;9518;51.720;14.384;2023-09-12T08:18:38;24.10;91.00
18779;DHT22;9518;51.720;14.384;2023-09-12T08:21:05;24.20;86.90
18779;DHT22;9518;51.720;14.384;2023-09-12T08:23:35;24.30;86.20
18779;DHT22;9518;51.720;14.384;2023-09-12T08:26:02;24.50;86.50
18779;DHT22;9518;51.720;14.384;2023-09-12T08:28:29;24.80;87.10
18779;DHT22;9518;51.720;14.384;2023-09-12T08:30:57;24.90;80.30
18779;DHT22;9518;51.720;14.384;2023-09-12T08:33:24;25.10;79.10
18779;DHT22;9518;51.720;14.384;2023-09-12T08:35:51;25.00;78.70
18779;DHT22;9518;51.720;14.384;2023-09-12T08:38:20;25.20;81.20
18779;DHT22;9518;51.720;14.384;2023-09-12T08:40:50;25.30;79.50
18779;DHT22;9518;51.720;14.384;2023-09-12T08:43:18;25.30;77.10
18779;DHT22;9518;51.720;14.384;2023-09-12T08:45:46;25.40;77.50
18779;DHT22;9518;51.720;14.384;2023-09-12T08:48:15;25.60;78.10
18779;DHT22;9518;51.720;14.384;2023-09-12T08:50:47;25.70;76.30
18779;DHT22;9518;51.720;14.384;2023-09-12T08:53:15;25.80;72.60
18779;DHT22;9518;51.720;14.384;2023-09-12T08:55:46;26.00;74.60
18779;DHT22;9518;51.720;14.384;2023-09-12T08:58:19;26.20;71.90
18779;DHT22;9518;51.720;14.384;2023-09-12T09:00:47;26.40;71.80
18779;DHT22;9518;51.720;14.384;2023-09-12T09:03:15;26.40;65.30
18779;DHT22;9518;51.720;14.384;2023-09-12T09:05:44;26.60;66.30
18779;DHT22;9518;51.720;14.384;2023-09-12T09:08:13;26.70;67.00
18779;DHT22;9518;51.720;14.384;2023-09-12T09:10:54;26.70;66.80
18779;DHT22;9518;51.720;14.384;2023-09-12T09:13:24;26.80;66.30
18779;DHT22;9518;51.720;14.384;2023-09-12T09:16:12;26.80;62.50
18779;DHT22;9518;51.720;14.384;2023-09-12T09:18:50;26.90;64.50
18779;DHT22;9518;51.720;14.384;2023-09-12T09:21:20;26.90;64.10
18779;DHT22;9518;51.720;14.384;2023-09-12T09:23:50;27.00;65.70
18779;DHT22;9518;51.720;14.384;2023-09-12T09:26:18;27.20;63.40
18779;DHT22;9518;51.720;14.384;2023-09-12T09:29:03;27.20;63.00
18779;DHT22;9518;51.720;14.384;2023-09-12T09:31:30;27.40;63.80
18779;DHT22;9518;51.720;14.384;2023-09-12T09:34:00;27.40;63.20
18779;DHT22;9518;51.720;14.384;2023-09-12T09:36:29;27.50;63.60
18779;DHT22;9518;51.720;14.384;2023-09-12T09:39:00;27.60;62.40
18779;DHT22;9518;51.720;14.384;2023-09-12T09:41:31;27.60;62.40
18779;DHT22;9518;51.720;14.384;2023-09-12T09:44:07;27.90;62.20
18779;DHT22;9518;51.720;14.384;2023-09-12T09:46:35;27.90;60.30
18779;DHT22;9518;51.720;14.384;2023-09-12T09:49:05;27.80;60.90
18779;DHT22;9518;51.720;14.384;2023-09-12T09:51:40;27.90;59.20
18779;DHT22;9518;51.720;14.384;2023-09-12T09:54:09;27.80;60.60
18779;DHT22;9518;51.720;14.384;2023-09-12T09:56:45;28.00;60.80
18779;DHT22;9518;51.720;14.384;2023-09-12T09:59:18;28.20;61.20
18779;DHT22;9518;51.720;14.384;2023-09-12T10:01:46;28.40;59.40
18779;DHT22;9518;51.720;14.384;2023-09-12T10:04:16;28.80;59.70
18779;DHT22;9518;51.720;14.384;2023-09-12T10:06:46;29.10;59.80
18779;DHT22;9518;51.720;14.384;2023-09-12T10:09:16;29.30;58.80
18779;DHT22;9518;51.720;14.384;2023-09-12T10:11:47;29.50;57.80
18779;DHT22;9518;51.720;14.384;2023-09-12T10:14:19;29.60;56.20
18779;DHT22;9518;51.720;14.384;2023-09-12T10:16:48;29.70;56.50
18779;DHT22;9518;51.720;14.384;2023-09-12T10:19:19;30.00;55.50
18779;DHT22;9518;51.720;14.384;2023-09-12T10:21:50;30.10;55.30
18779;DHT22;9518;51.720;14.384;2023-09-12T10:24:21;30.00;54.70
18779;DHT22;9518;51.720;14.384;2023-09-12T10:26:50;30.30;56.10
18779;DHT22;9518;51.720;14.384;2023-09-12T10:29:21;30.80;53.90
18779;DHT22;9518;51.720;14.384;2023-09-12T10:31:49;31.00;54.00
18779;DHT22;9518;51.720;14.384;2023-09-12T10:34:17;31.30;54.00
18779;DHT22;9518;51.720;14.384;2023-09-12T10:36:45;31.60;53.20
18779;DHT22;9518;51.720;14.384;2023-09-12T10:39:14;32.00;50.60
18779;DHT22;9518;51.720;14.384;2023-09-12T10:41:42;31.90;51.60
18779;DHT22;9518;51.720;14.384;2023-09-12T10:44:11;31.90;50.50
18779;DHT22;9518;51.720;14.384;2023-09-12T10:46:41;32.00;51.60
18779;DHT22;9518;51.720;14.384;2023-09-12T10:49:10;32.50;50.30
18779;DHT22;9518;51.720;14.384;2023-09-12T10:51:38;32.50;49.50
18779;DHT22;9518;51.720;14.384;2023-09-12T10:54:06;32.40;49.00
18779;DHT22;9518;51.720;14.384;2023-09-12T10:56:36;32.70;47.70
18779;DHT22;9518;51.720;14.384;2023-09-12T10:59:10;32.30;50.20
18779;DHT22;9518;51.720;14.384;2023-09-12T11:01:41;32.50;48.50
18779;DHT22;9518;51.720;14.384;2023-09-12T11:04:30;32.70;48.30
18779;DHT22;9518;51.720;14.384;2023-09-12T11:06:59;32.90;48.30
18779;DHT22;9518;51.720;14.384;2023-09-12T11:09:26;33.20;47.40
18779;DHT22;9518;51.720;14.384;2023-09-12T11:12:01;33.50;46.70
18779;DHT22;9518;51.720;14.384;2023-09-12T11:14:30;33.40;45.80
18779;DHT22;9518;51.720;14.384;2023-09-12T11:17:24;33.30;46.60
18779;DHT22;9518;51.720;14.384;2023-09-12T11:19:53;32.80;45.90
18779;DHT22;9518;51.720;14.384;2023-09-12T11:22:23;32.70;47.70
18779;DHT22;9518;51.720;14.384;2023-09-12T11:24:50;33.00;48.00
18779;DHT22;9518;51.720;14.384;2023-09-12T11:27:18;33.30;47.50
18779;DHT22;9518;51.720;14.384;2023-09-12T11:29:46;33.30;44.90
18779;DHT22;9518;51.720;14.384;2023-09-12T11:32:28;33.00;47.10
18779;DHT22;9518;51.720;14.384;2023-09-12T11:35:05;33.70;44.90
18779;DHT22;9518;51.720;14.384;2023-09-12T11:37:35;33.80;43.50
18779;DHT22;9518;51.720;14.384;2023-09-12T11:40:22;33.70;43.80
18779;DHT22;9518;51.720;14.384;2023-09-12T11:42:50;33.60;43.90
18779;DHT22;9518;51.720;14.384;2023-09-12T11:45:18;33.40;43.20
18779;DHT22;9518;51.720;14.384;2023-09-12T11:47:51;33.70;44.20
18779;DHT22;9518;51.720;14.384;2023-09-12T11:50:29;33.90;42.80
18779;DHT22;9518;51.720;14.384;2023-09-12T11:53:01;34.60;41.50
18779;DHT22;9518;51.720;14.384;2023-09-12T11:55:32;34.90;42.20
18779;DHT22;9518;51.720;14.384;2023-09-12T11:57:59;35.30;41.30
18779;DHT22;9518;51.720;14.384;2023-09-12T12:00:27;35.80;38.60
18779;DHT22;9518;51.720;14.384;2023-09-12T12:02:56;35.80;38.70
18779;DHT22;9518;51.720;14.384;2023-09-12T12:05:24;36.10;39.80
18779;DHT22;9518;51.720;14.384;2023-09-12T12:07:55;36.00;40.60
18779;DHT22;9518;51.720;14.384;2023-09-12T12:10:24;36.00;41.50
18779;DHT22;9518;51.720;14.384;2023-09-12T12:12:53;36.30;40.60
18779;DHT22;9518;51.720;14.384;2023-09-12T12:15:20;36.60;39.00
18779;DHT22;9518;51.720;14.384;2023-09-12T12:17:47;36.80;38.50
18779;DHT22;9518;51.720;14.384;2023-09-12T12:20:17;36.60;38.30
18779;DHT22;9518;51.720;14.384;2023-09-12T12:22:44;36.20;40.20
18779;DHT22;9518;51.720;14.384;2023-09-12T12:25:14;36.10;38.00
18779;DHT22;9518;51.720;14.384;2023-09-12T12:27:42;37.00;37.90
18779;DHT22;9518;51.720;14.384;2023-09-12T12:30:12;37.20;37.40
18779;DHT22;9518;51.720;14.384;2023-09-12T12:32:40;37.40;36.40
18779;DHT22;9518;51.720;14.384;2023-09-12T12:35:08;37.40;35.60
18779;DHT22;9518;51.720;14.384;2023-09-12T12:37:37;37.70;35.20
18779;DHT22;9518;51.720;14.384;2023-09-12T12:40:11;37.20;35.30
18779;DHT22;9518;51.720;14.384;2023-09-12T12:42:40;36.80;37.00
18779;DHT22;9518;51.720;14.384;2023-09-12T12:45:12;36.20;37.00
18779;DHT22;9518;51.720;14.384;2023-09-12T12:47:41;36.50;36.90
18779;DHT22;9518;51.720;14.384;2023-09-12T12:50:11;36.30;37.40
18779;DHT22;9518;51.720;14.384;2023-09-12T12:52:41;36.60;37.70
18779;DHT22;9518;51.720;14.384;2023-09-12T12:55:10;37.20;35.30
18779;DHT22;9518;51.720;14.384;2023-09-12T12:57:38;37.30;34.60
18779;DHT22;9518;51.720;14.384;2023-09-12T13:00:07;37.50;36.10
18779;DHT22;9518;51.720;14.384;2023-09-12T13:02:37;38.00;35.10
18779;DHT22;9518;51.720;14.384;2023-09-12T13:05:24;38.30;36.60
18779;DHT22;9518;51.720;14.384;2023-09-12T13:07:53;39.20;32.80
18779;DHT22;9518;51.720;14.384;2023-09-12T13:10:21;39.00;33.90
18779;DHT22;9518;51.720;14.384;2023-09-12T13:12:50;38.70;33.60
18779;DHT22;9518;51.720;14.384;2023-09-12T13:15:17;38.70;33.70
18779;DHT22;9518;51.720;14.384;2023-09-12T13:17:47;38.70;32.90
18779;DHT22;9518;51.720;14.384;2023-09-12T13:20:15;38.40;33.10
18779;DHT22;9518;51.720;14.384;2023-09-12T13:22:42;38.20;34.00
18779;DHT22;9518;51.720;14.384;2023-09-12T13:25:11;38.70;35.40
18779;DHT22;9518;51.720;14.384;2023-09-12T13:27:40;39.60;34.50
18779;DHT22;9518;51.720;14.384;2023-09-12T13:30:08;39.80;32.30
18779;DHT22;9518;51.720;14.384;2023-09-12T13:32:36;39.00;32.00
18779;DHT22;9518;51.720;14.384;2023-09-12T13:35:04;39.40;31.80
18779;DHT22;9518;51.720;14.384;2023-09-12T13:37:33;39.60;31.90
18779;DHT22;9518;51.720;14.384;2023-09-12T13:40:00;39.80;31.30
18779;DHT22;9518;51.720;14.384;2023-09-12T13:42:30;39.60;31.00
18779;DHT22;9518;51.720;14.384;2023-09-12T13:44:58;39.70;32.00
18779;DHT22;9518;51.720;14.384;2023-09-12T13:47:25;40.30;31.70
18779;DHT22;9518;51.720;14.384;2023-09-12T13:49:54;40.90;29.80
18779;DHT22;9518;51.720;14.384;2023-09-12T13:52:22;41.30;29.60
18779;DHT22;9518;51.720;14.384;2023-09-12T13:54:49;40.50;30.10
18779;DHT22;9518;51.720;14.384;2023-09-12T13:57:16;40.80;30.90
18779;DHT22;9518;51.720;14.384;2023-09-12T13:59:45;40.70;28.90
18779;DHT22;9518;51.720;14.384;2023-09-12T14:02:17;40.30;29.50
18779;DHT22;9518;51.720;14.384;2023-09-12T14:04:44;39.90;29.40
18779;DHT22;9518;51.720;14.384;2023-09-12T14:07:12;39.60;28.40
18779;DHT22;9518;51.720;14.384;2023-09-12T14:09:40;39.00;29.90
18779;DHT22;9518;51.720;14.384;2023-09-12T14:12:09;38.90;29.10
18779;DHT22;9518;51.720;14.384;2023-09-12T14:14:36;39.60;28.50
18779;DHT22;9518;51.720;14.384;2023-09-12T14:17:06;39.30;28.90
18779;DHT22;9518;51.720;14.384;2023-09-12T14:19:33;39.60;28.70
18779;DHT22;9518;51.720;14.384;2023-09-12T14:22:01;39.90;29.60
18779;DHT22;9518;51.720;14.384;2023-09-12T14:24:30;39.80;29.00
18779;DHT22;9518;51.720;14.384;2023-09-12T14:26:57;40.70;28.20
18779;DHT22;9518;51.720;14.384;2023-09-12T14:29:27;41.20;28.40
18779;DHT22;9518;51.720;14.384;2023-09-12T14:31:55;41.60;28.20
18779;DHT22;9518;51.720;14.384;2023-09-12T14:34:26;41.00;28.40
18779;DHT22;9518;51.720;14.384;2023-09-12T14:36:54;40.40;28.30
18779;DHT22;9518;51.720;14.384;2023-09-12T14:39:25;40.10;28.70
18779;DHT22;9518;51.720;14.384;2023-09-12T14:41:52;39.50;30.20
18779;DHT22;9518;51.720;14.384;2023-09-12T14:44:20;40.00;28.70
18779;DHT22;9518;51.720;14.384;2023-09-12T14:46:47;40.00;29.50
18779;DHT22;9518;51.720;14.384;2023-09-12T14:49:15;40.00;28.80
18779;DHT22;9518;51.720;14.384;2023-09-12T14:51:45;40.80;29.60
18779;DHT22;9518;51.720;14.384;2023-09-12T14:54:12;40.70;29.10
18779;DHT22;9518;51.720;14.384;2023-09-12T14:56:40;40.40;28.30
18779;DHT22;9518;51.720;14.384;2023-09-12T14:59:08;39.90;30.00
18779;DHT22;9518;51.720;14.384;2023-09-12T15:04:19;38.80;30.30
18779;DHT22;9518;51.720;14.384;2023-09-12T15:06:49;38.50;30.00
18779;DHT22;9518;51.720;14.384;2023-09-12T15:09:16;37.80;31.30
18779;DHT22;9518;51.720;14.384;2023-09-12T15:11:43;37.60;31.40
18779;DHT22;9518;51.720;14.384;2023-09-12T15:14:10;37.60;32.50
18779;DHT22;9518;51.720;14.384;2023-09-12T15:16:37;37.80;31.90
18779;DHT22;9518;51.720;14.384;2023-09-12T15:19:04;37.40;31.80
18779;DHT22;9518;51.720;14.384;2023-09-12T15:21:32;36.80;34.20
18779;DHT22;9518;51.720;14.384;2023-09-12T15:24:01;37.10;34.10
18779;DHT22;9518;51.720;14.384;2023-09-12T15:26:29;36.80;34.50
18779;DHT22;9518;51.720;14.384;2023-09-12T15:28:56;37.10;33.60
18779;DHT22;9518;51.720;14.384;2023-09-12T15:31:24;37.50;31.20
18779;DHT22;9518;51.720;14.384;2023-09-12T15:33:52;37.50;32.30
18779;DHT22;9518;51.720;14.384;2023-09-12T15:36:20;37.20;32.20
18779;DHT22;9518;51.720;14.384;2023-09-12T15:38:48;36.90;33.00
18779;DHT22;9518;51.720;14.384;2023-09-12T15:41:17;37.10;32.00
18779;DHT22;9518;51.720;14.384;2023-09-12T15:43:45;37.30;32.40